Time;durP1;ratioP1;P1;durP2;ratioP2;P2;SDS_P1;SDS_P2;PMS_P1;PMS_P2;Temp;Humidity;BMP_temperature;BMP_pressure;BME280_temperature;BME280_humidity;BME280_pressure;Samples;Min_cycle;Max_cycle;Signal;HPM_P1;HPM_P2
2022/06/19 00:01:18;;;;;;;10.18;2.00;;;15.50;96.80;;;;;;4824413;29;20051;-58
2022/06/19 00:03:50;;;;;;;8.32;1.98;;;15.50;96.60;;;;;;4823442;29;20102;-61
2022/06/19 00:06:16;;;;;;;7.63;1.95;;;15.50;96.30;;;;;;4824172;29;20061;-59
2022/06/19 00:08:49;;;;;;;5.30;1.60;;;15.50;96.40;;;;;;4807995;29;20059;-59
2022/06/19 00:11:18;;;;;;;6.18;1.88;;;15.50;96.10;;;;;;4824366;29;20061;-60
2022/06/19 00:13:44;;;;;;;4.68;1.50;;;15.40;96.20;;;;;;4824071;29;20058;-60
2022/06/19 00:16:11;;;;;;;8.82;2.35;;;15.40;96.10;;;;;;4824345;29;20057;-60
2022/06/19 00:18:38;;;;;;;7.55;1.92;;;15.40;96.30;;;;;;4824158;29;20408;-60
2022/06/19 00:21:05;;;;;;;8.68;2.10;;;15.40;96.50;;;;;;4824366;29;20082;-61
2022/06/19 00:23:31;;;;;;;10.80;2.30;;;15.40;96.70;;;;;;4823524;29;20146;-59
2022/06/19 00:25:57;;;;;;;8.18;2.47;;;15.40;96.90;;;;;;4823831;29;20145;-60
2022/06/19 00:28:23;;;;;;;7.63;2.10;;;15.40;96.90;;;;;;4824005;29;20175;-59
2022/06/19 00:30:49;;;;;;;12.50;2.67;;;15.40;97.20;;;;;;4823924;29;20054;-59
2022/06/19 00:33:14;;;;;;;7.57;2.28;;;15.40;97.60;;;;;;4823034;29;20056;-60
2022/06/19 00:35:41;;;;;;;9.13;2.40;;;15.30;98.00;;;;;;4823872;29;20089;-59
2022/06/19 00:38:07;;;;;;;8.70;2.30;;;15.30;98.30;;;;;;4824173;29;20054;-59
2022/06/19 00:40:34;;;;;;;13.10;2.30;;;15.30;98.40;;;;;;4823720;29;20417;-59
2022/06/19 00:43:00;;;;;;;7.43;2.30;;;15.30;98.80;;;;;;4824120;29;20513;-60
2022/06/19 00:45:36;;;;;;;9.57;2.40;;;15.40;99.10;;;;;;4807808;29;20055;-59
2022/06/19 00:48:16;;;;;;;10.38;2.63;;;15.40;99.40;;;;;;4823969;29;20050;-61
2022/06/19 00:50:45;;;;;;;8.52;2.78;;;15.40;99.60;;;;;;4792398;29;20090;-59
2022/06/19 00:53:18;;;;;;;13.23;2.72;;;15.40;99.90;;;;;;4823931;29;20141;-61
2022/06/19 00:55:47;;;;;;;8.40;2.53;;;15.40;99.90;;;;;;4823611;29;20051;-59
2022/06/19 00:58:36;;;;;;;12.60;2.65;;;15.40;99.90;;;;;;4823803;29;20102;-61
2022/06/19 01:01:07;;;;;;;11.70;2.65;;;15.50;99.90;;;;;;4807230;29;20483;-62
2022/06/19 01:03:57;;;;;;;12.07;3.00;;;15.50;99.90;;;;;;4823550;29;20054;-61
2022/06/19 01:06:23;;;;;;;10.63;2.50;;;15.50;99.90;;;;;;4823490;29;20050;-59
2022/06/19 01:08:50;;;;;;;12.48;3.00;;;15.60;99.90;;;;;;4823177;29;20081;-59
2022/06/19 01:11:18;;;;;;;8.43;2.22;;;15.50;99.90;;;;;;4823679;29;20412;-60
2022/06/19 01:13:44;;;;;;;9.90;2.33;;;15.50;99.90;;;;;;4791973;29;20065;-59
2022/06/19 01:16:10;;;;;;;12.15;2.80;;;15.60;99.90;;;;;;4823291;29;20050;-59
2022/06/19 01:18:38;;;;;;;9.68;2.10;;;15.60;99.90;;;;;;4822820;29;20085;-60
2022/06/19 01:21:22;;;;;;;10.18;2.80;;;15.60;99.90;;;;;;4822391;29;20489;-59
2022/06/19 01:23:59;;;;;;;10.65;2.60;;;15.60;99.90;;;;;;4823229;29;20105;-59
2022/06/19 01:26:27;;;;;;;11.82;3.03;;;15.50;99.90;;;;;;4823127;29;20098;-60
2022/06/19 01:28:56;;;;;;;13.60;3.13;;;15.50;99.90;;;;;;4823357;29;20054;-60
2022/06/19 01:31:48;;;;;;;14.40;3.10;;;15.50;99.90;;;;;;4823176;29;20050;-60
2022/06/19 01:34:32;;;;;;;12.63;2.90;;;15.50;99.90;;;;;;4823321;29;20129;-59
2022/06/19 01:37:04;;;;;;;13.80;3.25;;;15.50;99.90;;;;;;4822885;29;20071;-62
2022/06/19 01:39:44;;;;;;;12.23;2.88;;;15.50;99.90;;;;;;4823258;29;20046;-59
2022/06/19 01:42:11;;;;;;;14.15;3.20;;;15.40;99.90;;;;;;4823040;29;20158;-60
2022/06/19 01:44:38;;;;;;;14.68;2.88;;;15.30;99.90;;;;;;4822636;29;20519;-61
2022/06/19 01:47:05;;;;;;;11.18;2.85;;;15.30;99.90;;;;;;4806379;29;20094;-60
2022/06/19 01:49:33;;;;;;;14.65;2.92;;;15.30;99.90;;;;;;4806499;29;20524;-62
2022/06/19 01:51:59;;;;;;;13.15;3.10;;;15.30;99.90;;;;;;4823144;29;20089;-60
2022/06/19 01:54:31;;;;;;;14.65;3.97;;;15.20;99.90;;;;;;4823114;29;20062;-61
2022/06/19 01:56:57;;;;;;;13.40;2.95;;;15.20;99.90;;;;;;4822760;29;20050;-61
2022/06/19 01:59:27;;;;;;;15.55;3.42;;;15.10;99.90;;;;;;4822787;29;20050;-61
2022/06/19 02:01:54;;;;;;;14.52;3.08;;;15.10;99.90;;;;;;4806173;29;20511;-62
2022/06/19 02:04:20;;;;;;;13.02;3.05;;;15.10;99.90;;;;;;4823050;29;20058;-60
2022/06/19 02:06:48;;;;;;;15.70;3.42;;;15.10;99.90;;;;;;4806274;29;20046;-60
2022/06/19 02:09:17;;;;;;;13.50;3.20;;;15.10;99.90;;;;;;4822481;29;20524;-60
2022/06/19 02:11:43;;;;;;;12.50;3.00;;;15.10;99.90;;;;;;4822410;29;20292;-60
2022/06/19 02:14:10;;;;;;;14.70;2.80;;;15.00;99.90;;;;;;4806181;29;20054;-59
2022/06/19 02:16:40;;;;;;;12.55;3.20;;;15.00;99.90;;;;;;4822771;29;20055;-59
2022/06/19 02:19:07;;;;;;;11.93;3.10;;;15.00;99.90;;;;;;4822527;29;20062;-60
2022/06/19 02:21:43;;;;;;;10.85;3.00;;;14.90;99.90;;;;;;4822833;29;20058;-59
2022/06/19 02:24:11;;;;;;;13.48;3.42;;;14.80;99.90;;;;;;4822590;29;20066;-59
2022/06/19 02:26:39;;;;;;;14.63;3.40;;;14.80;99.90;;;;;;4822225;29;20046;-61
2022/06/19 02:29:09;;;;;;;13.05;3.45;;;14.70;99.90;;;;;;4822382;29;20122;-59
2022/06/19 02:31:37;;;;;;;17.17;3.63;;;14.70;99.90;;;;;;4823500;29;20054;-60
2022/06/19 02:34:15;;;;;;;13.10;3.17;;;14.70;99.90;;;;;;4825369;29;20046;-60
2022/06/19 02:36:55;;;;;;;12.07;3.08;;;14.70;99.90;;;;;;4809739;29;20066;-59
2022/06/19 02:39:26;;;;;;;17.13;3.15;;;14.70;99.90;;;;;;4826007;29;20050;-59
2022/06/19 02:42:27;;;;;;;18.85;3.60;;;14.70;99.90;;;;;;4809149;29;20054;-59
2022/06/19 02:45:05;;;;;;;13.82;3.00;;;14.70;99.90;;;;;;4819443;29;20412;-59
2022/06/19 02:47:35;;;;;;;14.02;2.75;;;14.70;99.90;;;;;;4825513;29;20067;-60
2022/06/19 02:50:01;;;;;;;17.10;3.35;;;14.80;99.90;;;;;;4825411;29;20101;-60
2022/06/19 02:52:27;;;;;;;18.83;3.35;;;14.80;99.90;;;;;;4825664;29;20278;-60
2022/06/19 02:54:53;;;;;;;12.00;3.17;;;14.80;99.90;;;;;;4809355;29;20087;-59
2022/06/19 02:57:19;;;;;;;14.40;3.08;;;14.90;99.90;;;;;;4825807;29;20057;-61
2022/06/19 02:59:44;;;;;;;14.02;2.70;;;14.80;99.90;;;;;;4825248;29;20050;-60
2022/06/19 03:02:14;;;;;;;12.95;2.75;;;14.80;99.90;;;;;;4825479;29;20133;-60
2022/06/19 03:04:56;;;;;;;12.25;2.72;;;14.80;99.90;;;;;;4809530;29;20094;-59
2022/06/19 03:07:22;;;;;;;13.68;2.90;;;14.70;99.90;;;;;;4825536;29;20069;-60
2022/06/19 03:09:48;;;;;;;14.52;2.97;;;14.80;99.90;;;;;;4825361;29;20473;-60
2022/06/19 03:12:14;;;;;;;15.00;2.78;;;14.70;99.90;;;;;;4824789;29;20100;-60
2022/06/19 03:14:39;;;;;;;16.35;3.30;;;14.80;99.90;;;;;;4825215;29;20133;-59
2022/06/19 03:17:05;;;;;;;13.65;3.13;;;14.80;99.90;;;;;;4824788;29;20124;-59
2022/06/19 03:19:31;;;;;;;11.43;2.63;;;14.70;99.90;;;;;;4808955;29;20511;-59
2022/06/19 03:21:57;;;;;;;12.00;2.85;;;14.70;99.90;;;;;;4824713;29;20058;-60
2022/06/19 03:24:23;;;;;;;14.15;3.28;;;14.70;99.90;;;;;;4824780;29;20073;-59
2022/06/19 03:26:48;;;;;;;14.57;3.17;;;14.70;99.90;;;;;;4824782;29;20450;-65
2022/06/19 03:29:14;;;;;;;11.55;2.97;;;14.60;99.90;;;;;;4824982;29;20050;-59
2022/06/19 03:31:40;;;;;;;15.65;2.58;;;14.70;99.90;;;;;;4824540;29;20107;-60
2022/06/19 03:34:05;;;;;;;14.65;3.58;;;14.60;99.90;;;;;;4824365;29;20046;-59
2022/06/19 03:36:31;;;;;;;9.98;2.67;;;14.50;99.90;;;;;;4825234;29;20092;-58
2022/06/19 03:38:57;;;;;;;14.02;2.50;;;14.50;99.90;;;;;;4824531;29;20061;-59
2022/06/19 03:41:23;;;;;;;12.52;2.80;;;14.50;99.90;;;;;;4824719;29;20058;-59
2022/06/19 03:43:48;;;;;;;12.18;2.65;;;14.50;99.90;;;;;;4823682;29;20109;-65
2022/06/19 03:46:17;;;;;;;12.10;2.85;;;14.50;99.90;;;;;;4824292;29;20058;-60
2022/06/19 03:48:45;;;;;;;17.40;3.35;;;14.60;99.90;;;;;;4824788;29;20050;-60
2022/06/19 03:51:12;;;;;;;18.60;3.50;;;14.50;99.90;;;;;;4824266;29;20050;-60
2022/06/19 03:53:38;;;;;;;16.92;3.90;;;14.30;99.90;;;;;;4824487;29;20103;-59
2022/06/19 03:56:05;;;;;;;15.73;3.03;;;14.20;99.90;;;;;;4823999;29;20440;-59
2022/06/19 03:58:46;;;;;;;15.20;3.42;;;14.00;99.90;;;;;;4824581;29;20069;-62
2022/06/19 04:01:20;;;;;;;16.45;3.70;;;13.80;99.90;;;;;;4824131;29;20077;-59
2022/06/19 04:03:47;;;;;;;16.52;3.58;;;13.60;99.90;;;;;;4824148;29;20050;-59
2022/06/19 04:06:15;;;;;;;13.35;3.25;;;13.60;99.90;;;;;;4823908;29;20137;-59
2022/06/19 04:08:44;;;;;;;16.75;3.50;;;13.50;99.90;;;;;;4824390;29;20133;-60
2022/06/19 04:11:10;;;;;;;18.90;3.45;;;13.50;99.90;;;;;;4823772;29;20481;-59
2022/06/19 04:13:36;;;;;;;17.67;3.65;;;13.50;99.90;;;;;;4824150;29;20097;-60
2022/06/19 04:16:04;;;;;;;15.57;3.97;;;13.50;99.90;;;;;;4823872;29;20137;-60
2022/06/19 04:18:31;;;;;;;14.68;3.50;;;13.60;99.90;;;;;;4808092;29;20370;-60
2022/06/19 04:20:58;;;;;;;16.27;3.80;;;13.60;99.90;;;;;;4807633;29;20137;-61
2022/06/19 04:23:24;;;;;;;17.35;3.85;;;13.50;99.90;;;;;;4823728;29;20153;-59
2022/06/19 04:25:51;;;;;;;18.85;3.58;;;13.50;99.90;;;;;;4823715;29;20054;-60
2022/06/19 04:28:18;;;;;;;16.05;3.40;;;13.40;99.90;;;;;;4823565;29;20058;-61
2022/06/19 04:30:46;;;;;;;18.83;3.63;;;13.40;99.90;;;;;;4823657;29;20054;-60
2022/06/19 04:33:18;;;;;;;15.27;3.53;;;13.20;99.90;;;;;;4823097;29;20050;-60
2022/06/19 04:35:44;;;;;;;18.85;4.07;;;13.10;99.90;;;;;;4807513;29;20050;-59
2022/06/19 04:38:10;;;;;;;22.90;4.68;;;13.10;99.90;;;;;;4823159;29;20064;-61
2022/06/19 04:40:37;;;;;;;17.42;3.97;;;13.00;99.90;;;;;;4823728;29;20057;-59
2022/06/19 04:43:04;;;;;;;15.30;3.50;;;13.00;99.90;;;;;;4823239;29;20127;-61
2022/06/19 04:45:31;;;;;;;13.38;2.97;;;13.00;99.90;;;;;;4823685;29;20274;-60
2022/06/19 04:47:57;;;;;;;12.75;3.45;;;13.00;99.90;;;;;;4823235;29;20047;-67
2022/06/19 04:50:23;;;;;;;12.18;3.30;;;12.90;99.90;;;;;;4823328;29;20228;-60
2022/06/19 04:52:49;;;;;;;20.83;3.45;;;13.00;99.90;;;;;;4823479;29;20061;-60
2022/06/19 04:55:16;;;;;;;17.23;3.53;;;13.00;99.90;;;;;;4823025;29;20497;-60
2022/06/19 04:57:42;;;;;;;16.83;3.20;;;13.00;99.90;;;;;;4823277;29;20057;-61
2022/06/19 05:00:10;;;;;;;17.30;3.47;;;13.00;99.90;;;;;;4822817;29;20050;-62
2022/06/19 05:02:37;;;;;;;13.65;3.00;;;13.10;99.90;;;;;;4823021;29;20046;-59
2022/06/19 05:05:05;;;;;;;12.43;2.65;;;13.00;99.90;;;;;;4822963;29;20054;-59
2022/06/19 05:07:31;;;;;;;8.85;2.72;;;12.80;99.90;;;;;;4823232;29;20071;-59
2022/06/19 05:09:57;;;;;;;13.23;3.13;;;12.70;99.90;;;;;;4823329;29;20054;-60
2022/06/19 05:12:22;;;;;;;13.27;2.58;;;12.80;99.90;;;;;;4823150;29;20087;-59
2022/06/19 05:14:48;;;;;;;13.90;3.08;;;12.80;99.90;;;;;;4807124;29;20051;-59
2022/06/19 05:17:14;;;;;;;12.85;2.60;;;12.80;99.90;;;;;;4822655;29;20134;-60
2022/06/19 05:19:40;;;;;;;9.77;2.35;;;12.80;99.90;;;;;;4823076;29;20050;-60
2022/06/19 05:22:07;;;;;;;13.80;2.80;;;12.80;99.90;;;;;;4822684;29;20089;-59
2022/06/19 05:24:33;;;;;;;12.35;2.83;;;12.80;99.90;;;;;;4823187;29;20109;-59
2022/06/19 05:26:58;;;;;;;11.13;2.80;;;12.70;99.90;;;;;;4823047;29;20042;-60
2022/06/19 05:29:24;;;;;;;13.68;3.10;;;12.80;99.90;;;;;;4805997;29;20083;-60
2022/06/19 05:31:50;;;;;;;13.02;2.45;;;12.80;99.90;;;;;;4806504;29;20042;-60
2022/06/19 05:34:16;;;;;;;17.27;3.50;;;12.80;99.90;;;;;;4806161;29;20124;-60
2022/06/19 05:36:42;;;;;;;12.40;2.65;;;12.80;99.90;;;;;;4823057;29;20058;-63
2022/06/19 05:39:11;;;;;;;13.48;3.22;;;12.80;99.90;;;;;;4822544;29;20408;-60
2022/06/19 05:41:40;;;;;;;13.40;3.13;;;12.70;99.90;;;;;;4822918;29;20055;-60
2022/06/19 05:44:06;;;;;;;13.02;3.05;;;12.80;99.90;;;;;;4822050;29;20089;-63
2022/06/19 05:46:32;;;;;;;15.45;2.75;;;12.80;99.90;;;;;;4823135;29;20426;-60
2022/06/19 05:48:58;;;;;;;12.52;3.33;;;12.80;99.90;;;;;;4822948;29;20050;-60
2022/06/19 05:51:25;;;;;;;15.02;2.80;;;12.80;99.90;;;;;;4806371;29;20284;-59
2022/06/19 05:53:55;;;;;;;15.57;2.97;;;12.70;99.90;;;;;;4822959;29;20131;-59
2022/06/19 05:56:22;;;;;;;11.60;2.75;;;12.70;99.90;;;;;;4822692;29;20058;-59
2022/06/19 05:58:48;;;;;;;12.60;2.75;;;12.60;99.90;;;;;;4822853;29;20050;-60
2022/06/19 06:01:15;;;;;;;17.55;3.17;;;12.60;99.90;;;;;;4822226;29;20106;-60
2022/06/19 06:03:44;;;;;;;13.43;3.10;;;12.60;99.90;;;;;;4822459;29;20171;-62
2022/06/19 06:06:14;;;;;;;11.23;2.83;;;12.60;99.90;;;;;;4821940;29;20090;-62
2022/06/19 06:08:40;;;;;;;12.38;2.80;;;12.60;99.90;;;;;;4822841;29;20158;-60
2022/06/19 06:11:06;;;;;;;12.88;2.53;;;12.70;99.90;;;;;;4823071;29;20090;-60
2022/06/19 06:13:32;;;;;;;15.32;2.50;;;12.60;99.90;;;;;;4822485;29;20068;-60
2022/06/19 06:15:59;;;;;;;14.30;2.55;;;12.70;99.90;;;;;;4791453;29;20050;-60
2022/06/19 06:18:26;;;;;;;11.57;2.90;;;12.70;99.90;;;;;;4806105;29;20046;-62
2022/06/19 06:20:55;;;;;;;15.60;2.67;;;12.70;99.90;;;;;;4821300;29;20077;-60
2022/06/19 06:23:22;;;;;;;9.23;2.58;;;12.70;99.90;;;;;;4821858;29;20097;-63
2022/06/19 06:25:48;;;;;;;13.73;2.35;;;12.70;99.90;;;;;;4822310;29;20066;-60
2022/06/19 06:28:14;;;;;;;15.10;2.70;;;12.70;99.90;;;;;;4822078;29;20446;-60
2022/06/19 06:30:40;;;;;;;12.80;2.33;;;12.70;99.90;;;;;;4822479;29;20130;-61
2022/06/19 06:33:05;;;;;;;13.90;2.50;;;12.80;99.90;;;;;;4821559;29;20162;-61
2022/06/19 06:35:32;;;;;;;11.55;2.65;;;12.80;99.90;;;;;;4821978;29;20053;-61
2022/06/19 06:37:59;;;;;;;10.93;2.53;;;12.90;99.90;;;;;;4822297;29;20058;-59
2022/06/19 06:40:25;;;;;;;9.63;2.22;;;13.00;99.90;;;;;;4821921;29;20062;-60
2022/06/19 06:42:51;;;;;;;15.95;2.95;;;13.00;99.90;;;;;;4822350;29;20505;-60
2022/06/19 06:45:17;;;;;;;12.18;3.08;;;13.10;99.90;;;;;;4821945;29;20058;-60
2022/06/19 06:47:43;;;;;;;12.43;3.42;;;13.10;99.90;;;;;;4822261;29;20042;-60
2022/06/19 06:50:09;;;;;;;12.85;2.92;;;13.10;99.90;;;;;;4822343;29;20133;-60
2022/06/19 06:52:35;;;;;;;13.48;2.22;;;13.20;99.90;;;;;;4821804;29;20394;-60
2022/06/19 06:55:00;;;;;;;15.98;2.53;;;13.20;99.90;;;;;;4821972;29;20122;-60
2022/06/19 06:57:27;;;;;;;15.55;2.80;;;13.30;99.90;;;;;;4821878;29;20102;-60
2022/06/19 06:59:52;;;;;;;13.55;2.35;;;13.30;99.90;;;;;;4822191;29;20129;-59
2022/06/19 07:02:18;;;;;;;16.27;2.50;;;13.40;99.90;;;;;;4790180;29;20509;-59
2022/06/19 07:04:44;;;;;;;11.43;2.80;;;13.30;99.90;;;;;;4822101;29;20058;-61
2022/06/19 07:07:09;;;;;;;15.88;2.90;;;13.50;99.90;;;;;;4822019;29;20102;-59
2022/06/19 07:09:35;;;;;;;11.90;2.28;;;13.50;99.90;;;;;;4821826;29;20050;-59
2022/06/19 07:12:02;;;;;;;14.90;2.47;;;13.50;99.90;;;;;;4822433;29;20138;-60
2022/06/19 07:14:28;;;;;;;13.63;2.72;;;13.60;99.90;;;;;;4821793;29;20152;-60
2022/06/19 07:16:54;;;;;;;12.18;2.17;;;13.70;99.90;;;;;;4821651;29;20474;-59
2022/06/19 07:19:20;;;;;;;11.63;2.28;;;13.70;99.90;;;;;;4823558;29;20065;-59
2022/06/19 07:21:45;;;;;;;9.73;2.03;;;13.70;99.90;;;;;;4824961;29;20133;-59
2022/06/19 07:24:11;;;;;;;10.98;2.33;;;13.70;99.90;;;;;;4825186;29;20058;-59
2022/06/19 07:26:37;;;;;;;9.93;2.33;;;13.80;99.90;;;;;;4824494;29;20595;-62
2022/06/19 07:29:03;;;;;;;9.43;2.78;;;13.80;99.90;;;;;;4824898;29;20053;-60
2022/06/19 07:31:29;;;;;;;12.48;2.53;;;13.80;99.90;;;;;;4824653;29;20054;-60
2022/06/19 07:33:54;;;;;;;12.63;2.63;;;13.80;99.90;;;;;;4825015;29;20058;-60
2022/06/19 07:36:23;;;;;;;8.25;2.65;;;13.90;99.90;;;;;;4824701;29;20046;-60
2022/06/19 07:38:49;;;;;;;14.95;2.95;;;14.00;99.90;;;;;;4824661;29;20046;-58
2022/06/19 07:41:15;;;;;;;10.20;2.35;;;14.00;99.90;;;;;;4824712;29;20421;-59
2022/06/19 07:43:43;;;;;;;11.25;2.72;;;14.10;99.90;;;;;;4793471;29;20401;-60
2022/06/19 07:46:10;;;;;;;10.55;2.53;;;14.10;99.90;;;;;;4794202;29;20065;-59
2022/06/19 07:51:19;;;;;;;12.85;2.67;;;14.20;99.90;;;;;;4824692;29;20061;-66
2022/06/19 07:53:46;;;;;;;13.93;2.92;;;14.20;99.90;;;;;;4808261;29;20046;-61
2022/06/19 07:56:12;;;;;;;12.20;3.40;;;14.20;99.90;;;;;;4824647;29;20059;-60
2022/06/19 07:58:37;;;;;;;10.52;2.38;;;14.20;99.90;;;;;;4808049;29;20059;-59
2022/06/19 08:01:04;;;;;;;8.65;2.55;;;14.20;99.90;;;;;;4824593;29;20046;-60
2022/06/19 08:03:29;;;;;;;9.77;2.28;;;14.30;99.90;;;;;;4807590;29;20062;-60
2022/06/19 08:05:55;;;;;;;10.07;2.40;;;14.30;99.90;;;;;;4824249;29;20054;-61
2022/06/19 08:08:25;;;;;;;10.93;2.30;;;14.30;99.90;;;;;;4824569;29;20129;-60
2022/06/19 08:10:53;;;;;;;10.57;2.05;;;14.20;99.90;;;;;;4824532;29;20093;-59
2022/06/19 08:13:24;;;;;;;8.63;2.00;;;14.20;99.90;;;;;;4824461;29;20050;-60
2022/06/19 08:15:53;;;;;;;10.77;2.53;;;14.20;99.90;;;;;;4808202;29;20066;-59
2022/06/19 08:18:19;;;;;;;9.05;2.30;;;14.20;99.90;;;;;;4824429;29;20129;-61
2022/06/19 08:20:46;;;;;;;9.30;2.08;;;14.20;99.90;;;;;;4823199;29;20383;-61
2022/06/19 08:23:13;;;;;;;12.07;3.25;;;14.20;99.90;;;;;;4823817;29;20062;-60
2022/06/19 08:25:39;;;;;;;11.82;2.60;;;14.20;99.90;;;;;;4823827;29;20058;-62
2022/06/19 08:28:05;;;;;;;8.27;2.25;;;14.20;99.90;;;;;;4824013;29;20387;-59
2022/06/19 08:30:35;;;;;;;10.88;2.30;;;14.30;99.90;;;;;;4807087;29;20084;-59
2022/06/19 08:33:01;;;;;;;10.90;2.42;;;14.30;99.90;;;;;;4823603;29;20050;-60
2022/06/19 08:35:28;;;;;;;12.32;2.88;;;14.40;99.90;;;;;;4823892;29;20060;-65
2022/06/19 08:38:00;;;;;;;10.45;2.08;;;14.50;99.90;;;;;;4824072;29;20145;-60
2022/06/19 08:40:38;;;;;;;6.93;1.67;;;14.50;99.90;;;;;;4807580;29;20054;-65
2022/06/19 08:43:19;;;;;;;12.13;2.30;;;14.60;99.90;;;;;;4824126;29;20250;-60
2022/06/19 08:45:53;;;;;;;11.15;3.13;;;14.60;99.90;;;;;;4807552;29;20418;-59
2022/06/19 08:48:25;;;;;;;10.10;2.40;;;14.50;99.90;;;;;;4823845;29;20382;-60
2022/06/19 08:51:35;;;;;;;9.25;2.22;;;14.50;99.90;;;;;;4823441;29;20105;-58
2022/06/19 08:54:12;;;;;;;13.00;2.40;;;14.60;99.90;;;;;;4823286;29;20047;-59
2022/06/19 08:56:47;;;;;;;7.75;2.17;;;14.60;99.90;;;;;;4823361;29;20123;-59
2022/06/19 08:59:27;;;;;;;9.85;2.17;;;14.70;99.90;;;;;;4823711;29;20058;-59
2022/06/19 09:02:14;;;;;;;9.88;2.13;;;14.70;99.90;;;;;;4823690;29;20054;-60
2022/06/19 09:08:08;;;;;;;4.47;1.60;;;14.80;99.90;;;;;;4823232;29;20057;-59
2022/06/19 09:10:43;;;;;;;7.30;1.83;;;14.80;99.90;;;;;;4806845;29;20451;-61
2022/06/19 09:13:39;;;;;;;5.80;2.03;;;14.80;99.90;;;;;;4806687;29;20536;-59
2022/06/19 09:16:23;;;;;;;6.88;1.88;;;14.90;99.90;;;;;;4807003;29;20097;-61
2022/06/19 09:19:04;;;;;;;8.40;2.10;;;14.80;99.90;;;;;;4822955;29;20046;-59
2022/06/19 09:22:08;;;;;;;10.27;2.30;;;14.90;99.90;;;;;;4823060;29;20132;-59
2022/06/19 09:24:36;;;;;;;6.28;1.50;;;14.80;99.90;;;;;;4794528;29;20069;-62
2022/06/19 09:27:02;;;;;;;5.50;1.52;;;14.70;99.90;;;;;;4822627;29;20615;-60
2022/06/19 09:30:00;;;;;;;5.43;1.73;;;14.80;99.90;;;;;;4823190;29;20046;-60
2022/06/19 09:32:41;;;;;;;7.70;1.80;;;14.90;99.90;;;;;;4809975;29;20561;-60
2022/06/19 09:35:10;;;;;;;8.10;1.83;;;15.00;99.90;;;;;;4823236;29;20090;-60
2022/06/19 09:37:49;;;;;;;6.35;1.55;;;15.10;99.90;;;;;;4822598;29;20058;-61
2022/06/19 09:40:29;;;;;;;4.85;1.25;;;15.00;99.90;;;;;;4822973;29;20058;-59
2022/06/19 09:43:05;;;;;;;6.40;1.95;;;15.00;99.90;;;;;;4806155;29;20113;-59
2022/06/19 09:45:36;;;;;;;7.05;1.70;;;15.10;99.90;;;;;;4822843;29;20058;-60
2022/06/19 09:48:12;;;;;;;8.02;1.90;;;15.10;99.90;;;;;;4821963;29;20545;-61
2022/06/19 09:51:07;;;;;;;4.85;1.60;;;15.10;99.90;;;;;;4822443;29;20050;-61
2022/06/19 09:53:47;;;;;;;7.07;1.75;;;15.10;99.90;;;;;;4806619;29;20489;-59
2022/06/19 09:56:23;;;;;;;4.93;1.50;;;15.20;99.90;;;;;;4822699;29;20504;-59
2022/06/19 09:58:53;;;;;;;7.60;1.88;;;15.30;99.90;;;;;;4822349;29;20050;-59
2022/06/19 10:01:20;;;;;;;12.93;2.47;;;15.30;99.90;;;;;;4806149;29;20046;-60
2022/06/19 10:03:59;;;;;;;6.25;1.50;;;15.40;99.90;;;;;;4822486;29;20124;-60
2022/06/19 10:06:43;;;;;;;4.53;1.55;;;15.50;99.90;;;;;;4806196;29;20062;-59
2022/06/19 10:09:30;;;;;;;5.82;1.50;;;15.50;99.90;;;;;;4822329;29;20497;-61
2022/06/19 10:11:59;;;;;;;6.25;1.55;;;15.60;99.90;;;;;;4822339;29;20062;-60
2022/06/19 10:14:31;;;;;;;6.75;1.73;;;15.70;99.90;;;;;;4822639;29;20429;-59
2022/06/19 10:17:20;;;;;;;3.47;1.30;;;15.70;99.90;;;;;;4822090;29;20053;-59
2022/06/19 10:19:54;;;;;;;3.72;1.30;;;15.80;99.90;;;;;;4822381;29;20054;-60
2022/06/19 10:22:58;;;;;;;6.88;1.50;;;15.80;99.90;;;;;;4806354;29;20564;-60
2022/06/19 10:25:44;;;;;;;5.55;1.65;;;15.90;99.90;;;;;;4800500;29;20519;-59
2022/06/19 10:28:30;;;;;;;5.18;1.52;;;15.90;99.90;;;;;;4805906;29;20051;-59
2022/06/19 10:31:23;;;;;;;3.28;1.35;;;16.10;99.90;;;;;;4822485;29;20094;-59
2022/06/19 10:34:15;;;;;;;5.82;1.50;;;16.10;99.90;;;;;;4822018;29;20576;-61
2022/06/19 10:37:06;;;;;;;5.18;1.60;;;16.30;99.90;;;;;;4822463;29;20142;-62
2022/06/19 10:40:29;;;;;;;5.45;1.48;;;16.40;99.90;;;;;;4822322;29;20054;-60
2022/06/19 10:43:23;;;;;;;4.50;1.35;;;16.50;99.90;;;;;;4818197;29;20054;-59
2022/06/19 10:45:53;;;;;;;4.68;1.45;;;16.60;99.90;;;;;;4821727;29;20059;-60
2022/06/19 10:48:39;;;;;;;4.53;1.38;;;16.70;99.90;;;;;;4821967;29;20050;-59
2022/06/19 10:51:25;;;;;;;1.85;1.08;;;16.50;99.90;;;;;;4821989;29;20064;-59
2022/06/19 10:53:56;;;;;;;1.48;0.90;;;16.40;99.90;;;;;;4822353;29;20107;-59
2022/06/19 10:56:28;;;;;;;2.90;1.15;;;16.40;99.90;;;;;;4809254;29;20378;-60
2022/06/19 10:58:55;;;;;;;3.63;1.02;;;16.40;99.90;;;;;;4825727;29;20081;-59
2022/06/19 11:04:17;;;;;;;3.88;1.20;;;16.50;99.90;;;;;;4825357;29;20062;-60
2022/06/19 11:06:54;;;;;;;2.38;0.77;;;16.70;99.90;;;;;;4825133;29;20405;-60
2022/06/19 11:09:22;;;;;;;5.15;1.20;;;16.70;99.90;;;;;;4825230;29;20050;-62
2022/06/19 11:11:51;;;;;;;4.70;1.80;;;16.70;99.90;;;;;;4809142;29;20050;-59
2022/06/19 11:14:44;;;;;;;2.72;1.15;;;16.60;99.90;;;;;;4825410;29;20404;-59
2022/06/19 11:17:33;;;;;;;4.22;1.30;;;16.50;99.90;;;;;;4824047;29;20615;-59
2022/06/19 11:20:17;;;;;;;8.05;1.60;;;16.60;99.90;;;;;;4824915;29;20059;-59
2022/06/19 11:22:49;;;;;;;4.57;1.30;;;16.50;99.90;;;;;;4824853;29;20137;-59
2022/06/19 11:25:20;;;;;;;4.43;1.33;;;16.50;99.90;;;;;;4824780;29;20066;-59
2022/06/19 11:28:05;;;;;;;5.82;1.10;;;16.40;99.90;;;;;;4824893;29;20061;-61
2022/06/19 11:30:45;;;;;;;4.80;1.20;;;16.30;99.90;;;;;;4824943;29;20054;-58
2022/06/19 11:33:17;;;;;;;5.57;1.20;;;16.20;99.90;;;;;;4808611;29;20405;-59
2022/06/19 11:35:47;;;;;;;3.42;1.23;;;16.10;99.90;;;;;;4809058;29;20439;-59
2022/06/19 11:38:14;;;;;;;4.03;1.30;;;16.00;99.90;;;;;;4825032;29;20090;-61
2022/06/19 11:40:46;;;;;;;4.43;1.63;;;16.00;99.90;;;;;;4825071;29;20137;-60
2022/06/19 11:43:32;;;;;;;6.28;1.52;;;15.90;99.90;;;;;;4824752;29;20050;-60
2022/06/19 11:46:16;;;;;;;6.90;1.63;;;15.80;99.90;;;;;;4823393;29;20050;-59
2022/06/19 11:48:42;;;;;;;4.25;1.45;;;15.70;99.90;;;;;;4824773;29;20129;-59
2022/06/19 11:51:21;;;;;;;4.85;1.73;;;15.70;99.90;;;;;;4806747;29;20133;-60
2022/06/19 11:53:53;;;;;;;8.30;1.83;;;15.60;99.90;;;;;;4823908;29;20133;-61
2022/06/19 11:56:27;;;;;;;8.60;1.88;;;15.60;99.90;;;;;;4824229;29;20090;-60
2022/06/19 11:58:59;;;;;;;5.25;1.73;;;15.70;99.90;;;;;;4824064;29;20054;-59
2022/06/19 12:01:43;;;;;;;5.53;1.70;;;15.80;99.90;;;;;;4824345;29;20398;-59
2022/06/19 12:04:28;;;;;;;6.95;1.90;;;15.80;99.90;;;;;;4823973;29;20122;-59
2022/06/19 12:07:00;;;;;;;6.53;1.55;;;15.70;99.90;;;;;;4807885;29;20373;-59
2022/06/19 12:09:43;;;;;;;3.67;1.60;;;15.80;99.90;;;;;;4824528;29;20137;-58
2022/06/19 12:12:12;;;;;;;11.07;2.20;;;15.80;99.90;;;;;;4824047;29;20062;-58
2022/06/19 12:14:47;;;;;;;8.57;1.88;;;15.80;99.90;;;;;;4824389;29;20058;-59
2022/06/19 12:17:34;;;;;;;5.30;1.98;;;15.90;99.90;;;;;;4823973;29;20517;-60
2022/06/19 12:20:06;;;;;;;5.72;1.60;;;15.90;99.90;;;;;;4824249;29;20488;-60
2022/06/19 12:22:38;;;;;;;7.18;1.77;;;15.90;99.90;;;;;;4824304;29;20099;-60
2022/06/19 12:25:16;;;;;;;7.93;2.13;;;15.90;99.90;;;;;;4824219;29;20141;-62
2022/06/19 12:28:07;;;;;;;6.53;1.50;;;15.90;99.90;;;;;;4824373;29;20085;-60
2022/06/19 12:30:54;;;;;;;8.07;1.65;;;16.00;99.90;;;;;;4808460;29;20060;-60
2022/06/19 12:33:35;;;;;;;6.57;1.70;;;16.10;99.90;;;;;;4824019;29;20057;-59
2022/06/19 12:36:01;;;;;;;6.43;1.70;;;16.40;99.90;;;;;;4823978;29;20178;-62
2022/06/19 12:38:33;;;;;;;3.88;1.55;;;16.60;99.90;;;;;;4824319;29;20077;-59
2022/06/19 12:41:26;;;;;;;5.80;1.67;;;16.80;99.90;;;;;;4823874;29;20409;-60
2022/06/19 12:44:00;;;;;;;4.75;1.45;;;16.90;99.90;;;;;;4806931;29;20054;-61
2022/06/19 12:46:30;;;;;;;4.85;1.85;;;17.00;99.90;;;;;;4823442;29;20054;-61
2022/06/19 12:49:20;;;;;;;7.32;1.65;;;17.10;99.90;;;;;;4823728;29;20047;-61
2022/06/19 12:52:17;;;;;;;5.30;1.73;;;17.30;99.90;;;;;;4824070;29;20129;-59
2022/06/19 12:54:58;;;;;;;7.15;1.50;;;17.50;99.90;;;;;;4813917;29;20066;-61
2022/06/19 12:57:56;;;;;;;5.43;1.67;;;17.60;99.90;;;;;;4823979;29;20046;-60
2022/06/19 13:01:03;;;;;;;3.80;1.38;;;17.70;99.90;;;;;;4788784;29;20097;-62
2022/06/19 13:03:48;;;;;;;5.65;1.98;;;17.80;99.90;;;;;;4788310;29;20141;-62
2022/06/19 13:06:39;;;;;;;5.10;1.45;;;17.90;99.90;;;;;;4823254;29;20497;-62
2022/06/19 13:09:16;;;;;;;5.97;1.60;;;17.90;99.90;;;;;;4807263;29;20054;-66
2022/06/19 13:11:57;;;;;;;6.90;1.73;;;17.80;99.90;;;;;;4823591;29;20050;-61
2022/06/19 13:14:49;;;;;;;6.25;1.70;;;17.70;99.90;;;;;;4807116;29;20170;-61